Latest Weather Observations for Strathalbyn

IDS60901

Issued at 7:01 am CST Saturday 20 July 2019 (issued every 10 minutes, with the page automatically refreshed every 10 minutes)

About weather observations | Map of Adelaide area stations | Latest observations for Adelaide area | Other Formats
Station Details ID: 024580 Name: STRATHALBYN RACECOURSE Lat: -35.28 Lon: 138.89 Height: 58.0 m
Data from the previous 72 hours. | See also: Recent months at Strathalbyn
Date/Time
CST
Temp
°C
App
Temp
°C
Dew
Point
°C
Rel
Hum
%
Delta-T
°C
Wind Press
QNH
hPa
Press
MSL
hPa
Rain since
9am
mm
Dir  Spd
km/h
Gust
km/h
Spd
kts
Gust
kts
20/07:00am 11.7 6.6 3.0 55 3.8 NNE 19 24 10 13 1013.8 1013.9 0.0
20/06:30am 11.5 6.2 3.0 56 3.7 NNE 20 26 11 14 1013.8 1013.9 0.0
20/06:00am 12.1 6.9 3.3 55 3.9 NE 20 24 11 13 1013.8 1013.9 0.0
20/05:30am 12.4 6.4 3.1 53 4.1 NE 24 33 13 18 1013.8 1013.9 0.0
20/05:00am 12.4 6.3 2.8 52 4.2 NE 24 32 13 17 1013.8 1013.9 0.0
20/04:30am 12.6 6.5 2.7 51 4.3 NNE 24 30 13 16 1013.9 1014.0 0.0
20/04:00am 12.1 5.6 2.8 53 4.1 NNE 26 32 14 17 1014.2 1014.3 0.0
20/03:30am 11.6 5.5 2.6 54 3.9 NNE 24 30 13 16 1014.5 1014.6 0.0
20/03:00am 10.4 5.2 2.7 59 3.3 N 19 24 10 13 1014.8 1014.9 0.0
20/02:30am 9.3 5.2 2.4 62 2.9 NNE 13 15 7 8 1015.0 1015.1 0.0
20/02:00am 9.3 5.2 2.2 61 3.0 N 13 15 7 8 1015.3 1015.4 0.0
20/01:30am 10.2 5.7 2.3 58 3.4 N 15 17 8 9 1015.7 1015.8 0.0
20/01:00am 10.0 5.5 2.1 58 3.3 N 15 17 8 9 1016.1 1016.2 0.0
20/12:30am 10.5 5.7 2.4 57 3.5 N 17 20 9 11 1016.6 1016.7 0.0
20/12:00am 10.2 5.9 3.0 61 3.1 N 15 19 8 10 1016.8 1016.9 0.0
 
Date/Time
CST
Temp
°C
App
Temp
°C
Dew
Point
°C
Rel
Hum
%
Delta-T
°C
Wind Press
QNH
hPa
Press
MSL
hPa
Rain since
9am
mm
Dir  Spd
km/h
Gust
km/h
Spd
kts
Gust
kts
19/11:30pm 9.2 4.9 3.4 67 2.5 NNW 15 17 8 9 1017.2 1017.3 0.0
19/11:00pm 9.0 4.8 3.8 70 2.3 NNW 15 17 8 9 1017.4 1017.5 0.0
19/10:30pm 8.3 4.2 4.3 76 1.7 NNW 15 17 8 9 1017.7 1017.8 0.0
19/10:00pm 8.8 4.7 4.6 75 1.9 NNW 15 19 8 10 1017.9 1018.0 0.0
19/09:30pm 9.3 4.9 4.9 74 2.0 NW 17 19 9 10 1018.0 1018.1 0.0
19/09:00pm 9.1 4.7 4.7 74 2.0 NW 17 20 9 11 1018.1 1018.2 0.0
19/08:30pm 9.1 4.7 4.7 74 2.0 NW 17 19 9 10 1018.3 1018.4 0.0
19/08:00pm 9.3 5.3 4.7 73 2.1 NNW 15 17 8 9 1018.4 1018.5 0.0
19/07:30pm 9.7 5.3 4.9 72 2.2 NW 17 20 9 11 1018.4 1018.5 0.0
19/07:00pm 10.5 6.2 5.3 70 2.4 NW 17 19 9 10 1018.2 1018.3 0.0
19/06:30pm 10.0 8.2 5.2 72 2.2 NNW 4 9 2 5 1018.0 1018.1 0.0
19/06:00pm 10.7 9.5 4.6 66 2.7 CALM 0 0 0 0 1018.0 1018.1 0.0
19/05:30pm 12.8 10.3 4.8 58 3.7 N 7 11 4 6 1017.9 1018.0 0.0
19/05:00pm 15.0 12.1 4.7 50 4.8 N 9 11 5 6 1017.9 1018.0 0.0
19/04:30pm 16.7 14.3 5.3 47 5.5 NNW 7 9 4 5 1018.0 1018.1 0.0
19/04:00pm 17.1 14.0 5.4 46 5.6 NNW 11 15 6 8 1017.9 1018.0 0.0
19/03:30pm 17.1 12.1 4.8 44 5.9 NNW 20 28 11 15 1018.0 1018.1 0.0
19/03:00pm 17.3 12.8 4.3 42 6.1 NNW 17 24 9 13 1018.1 1018.2 0.0
19/02:30pm 17.4 13.2 5.7 46 5.7 NW 17 22 9 12 1018.2 1018.3 0.0
19/02:00pm 17.5 12.7 4.5 42 6.2 NNW 19 24 10 13 1018.4 1018.5 0.0
19/01:30pm 17.4 12.5 5.0 44 5.9 NNW 20 26 11 14 1018.6 1018.7 0.0
19/01:00pm 16.8 12.0 5.7 48 5.4 NNW 20 30 11 16 1018.9 1019.0 0.0
19/12:30pm 16.8 12.2 5.4 47 5.5 NNW 19 26 10 14 1019.4 1019.5 0.0
19/12:00pm 16.2 12.6 8.2 59 4.0 NNW 17 22 9 12 1020.1 1020.1 0.0
19/11:30am 15.3 11.4 8.8 65 3.3 NNW 19 26 10 14 1020.8 1020.8 0.0
19/11:00am 14.6 10.5 8.8 68 2.9 NNW 20 26 11 14 1021.3 1021.3 0.0
19/10:30am 14.2 10.3 8.6 69 2.8 NNW 19 26 10 14 1021.5 1021.5 0.0
19/10:00am 14.3 10.9 9.1 71 2.7 NNW 17 22 9 12 1021.4 1021.4 0.0
19/09:30am 13.7 10.9 8.7 72 2.5 NNW 13 17 7 9 1021.4 1021.4 0.0
19/09:00am 13.1 10.4 9.0 76 2.1 NNW 13 19 7 10 1021.2 1021.2 0.2
19/08:30am 12.3 10.0 9.1 81 1.6 NW 11 15 6 8 1020.9 1020.9 0.2
19/08:00am 11.4 7.9 8.8 84 1.3 NW 17 20 9 11 1020.6 1020.6 0.2
19/07:30am 10.9 8.1 8.5 85 1.2 NNW 13 17 7 9 1020.4 1020.4 0.2
19/07:00am 11.5 8.0 8.7 83 1.4 NW 17 20 9 11 1020.3 1020.3 0.2
19/06:30am 11.9 8.4 8.9 82 1.5 NW 17 22 9 12 1020.0 1020.0 0.2
19/06:00am 11.9 8.5 9.1 83 1.4 NW 17 22 9 12 1019.7 1019.8 0.2
19/05:30am 11.5 7.5 9.1 85 1.2 WNW 20 28 11 15 1019.6 1019.7 0.2
19/05:00am 11.3 7.8 8.7 84 1.3 NW 17 24 9 13 1019.4 1019.5 0.2
19/04:30am 11.4 6.9 8.6 83 1.4 NW 22 30 12 16 1019.1 1019.2 0.2
19/04:00am 11.3 5.6 8.5 83 1.4 WNW 28 35 15 19 1018.7 1018.8 0.2
19/03:30am 11.2 5.8 8.2 82 1.5 NW 26 35 14 19 1018.9 1019.0 0.2
19/03:00am 11.1 5.7 8.1 82 1.5 NW 26 30 14 16 1019.1 1019.2 0.2
19/02:30am 11.2 5.8 8.1 81 1.5 NW 26 32 14 17 1019.6 1019.7 0.2
19/02:00am 11.4 5.6 8.1 80 1.6 NW 28 33 15 18 1019.4 1019.5 0.2
19/01:30am 11.4 6.0 8.1 80 1.6 NW 26 35 14 19 1019.3 1019.4 0.2
19/01:00am 11.4 4.8 7.7 78 1.8 NW 32 39 17 21 1019.0 1019.1 0.2
19/12:30am 11.4 5.5 7.5 77 1.9 NW 28 35 15 19 1019.4 1019.5 0.2
19/12:00am 11.2 5.7 7.7 79 1.7 NW 26 33 14 18 1019.5 1019.6 0.2
 
Date/Time
CST
Temp
°C
App
Temp
°C
Dew
Point
°C
Rel
Hum
%
Delta-T
°C
Wind Press
QNH
hPa
Press
MSL
hPa
Rain since
9am
mm
Dir  Spd
km/h
Gust
km/h
Spd
kts
Gust
kts
18/11:30pm 11.2 6.9 7.7 79 1.7 NW 20 26 11 14 1019.5 1019.6 0.2
18/11:00pm 10.9 6.8 7.8 81 1.5 NW 19 24 10 13 1019.5 1019.6 0.2
18/10:30pm 10.9 7.8 7.4 79 1.7 NNW 13 17 7 9 1019.7 1019.8 0.2
18/10:00pm 10.6 7.9 7.5 81 1.5 NW 11 19 6 10 1019.6 1019.7 0.2
18/09:30pm 10.7 7.6 7.4 80 1.6 NW 13 20 7 11 1019.5 1019.6 0.2
18/09:00pm 10.6 7.8 7.1 79 1.7 NNW 11 17 6 9 1019.3 1019.4 0.2
18/08:30pm 10.8 7.7 7.1 78 1.8 NNW 13 17 7 9 1019.2 1019.3 0.2
18/08:00pm 11.7 8.6 7.4 75 2.1 NW 13 20 7 11 1019.3 1019.4 0.2
18/07:30pm 11.5 5.6 7.4 76 2.0 NW 28 39 15 21 1018.7 1018.8 0.2
18/07:00pm 11.6 5.3 7.3 75 2.1 NW 30 41 16 22 1018.1 1018.2 0.2
18/06:30pm 11.7 4.0 7.2 74 2.2 NW 37 48 20 26 1017.5 1017.6 0.2
18/06:00pm 11.8 4.5 7.3 74 2.2 NW 35 50 19 27 1017.6 1017.7 0.2
18/05:30pm 11.9 5.6 7.6 75 2.1 NW 30 41 16 22 1017.6 1017.7 0.2
18/05:00pm 12.1 5.9 7.8 75 2.1 NW 30 43 16 23 1017.5 1017.6 0.2
18/04:30pm 12.6 6.4 7.9 73 2.3 NW 30 43 16 23 1017.2 1017.3 0.2
18/04:00pm 13.1 6.0 8.0 71 2.5 NW 35 46 19 25 1017.3 1017.4 0.2
18/03:30pm 13.3 6.1 7.7 69 2.8 NW 35 48 19 26 1017.3 1017.4 0.2
18/03:00pm 14.2 9.7 8.6 69 2.8 NW 22 33 12 18 1018.0 1018.1 0.2
18/02:30pm 14.0 8.1 7.3 64 3.3 NW 28 39 15 21 1017.5 1017.6 0.2
18/02:00pm 14.2 9.4 7.3 63 3.4 NW 22 35 12 19 1017.8 1017.9 0.2
18/01:42pm 13.8 7.8 6.9 63 3.4 NW 28 52 15 28 1017.9 1018.0 0.2
18/01:30pm 14.0 8.1 7.5 65 3.2 NW 28 41 15 22 1018.0 1018.1 0.2
18/01:00pm 13.4 7.4 7.2 66 3.0 NW 28 39 15 21 1018.2 1018.3 0.2
18/12:30pm 14.3 10.2 8.7 69 2.8 WNW 20 35 11 19 1018.6 1018.7 0.2
18/12:00pm 12.9 8.2 7.8 71 2.5 NW 22 33 12 18 1019.0 1019.1 0.2
18/11:30am 12.9 8.8 8.6 75 2.1 NW 20 28 11 15 1019.8 1019.9 0.2
18/11:00am 13.1 9.0 8.6 74 2.3 NW 20 30 11 16 1019.8 1019.9 0.2
18/10:30am 12.5 8.5 8.4 76 2.0 NW 19 28 10 15 1020.3 1020.3 0.2
18/10:00am 12.6 9.2 9.2 80 1.7 NNW 17 26 9 14 1020.5 1020.5 0.2
18/09:30am 12.3 8.8 8.6 78 1.8 NNW 17 26 9 14 1020.6 1020.6 0.2
18/09:00am 12.1 9.1 9.1 82 1.5 NNW 15 20 8 11 1020.6 1020.6 0.2
18/08:30am 12.5 8.2 9.5 82 1.5 NW 22 30 12 16 1020.8 1020.8 0.2
18/08:00am 11.9 6.3 8.9 82 1.5 NW 28 39 15 21 1019.7 1019.8 0.2
18/07:30am 11.6 7.2 9.0 84 1.3 NW 22 37 12 20 1019.6 1019.7 0.2
18/07:00am 11.6 8.6 9.3 86 1.2 NW 15 22 8 12 1019.7 1019.8 0.2
18/06:30am 11.4 8.0 9.1 86 1.1 NW 17 22 9 12 1019.3 1019.4 0.2
18/06:00am 11.4 9.1 9.1 86 1.1 NW 11 15 6 8 1019.3 1019.4 0.0
18/05:30am 9.7 7.4 9.1 96 0.3 NW 11 13 6 7 1019.2 1019.3 0.0
18/05:00am 9.4 6.7 9.1 98 0.1 NW 13 15 7 8 1019.2 1019.3 0.0
18/04:30am 6.6 5.4 4.8 88 0.8 CALM 0 0 0 0 1019.6 1019.7 0.0
18/04:00am 8.7 6.1 7.8 94 0.4 NW 11 13 6 7 1019.6 1019.7 0.0
18/03:30am 8.2 5.9 7.4 95 0.4 WNW 9 13 5 7 1019.8 1019.9 0.0
18/03:00am 8.0 6.1 7.4 96 0.3 N 7 9 4 5 1020.2 1020.2 0.0
18/02:30am 7.3 5.4 6.6 95 0.3 NNW 6 7 3 4 1020.3 1020.3 0.0
18/02:00am 7.5 6.0 6.6 94 0.4 NNW 4 7 2 4 1020.3 1020.3 0.0
18/01:30am 8.2 6.3 7.4 95 0.4 NNW 7 9 4 5 1020.3 1020.3 0.0
18/01:00am 9.0 8.4 7.5 90 0.7 CALM 0 0 0 0 1020.6 1020.6 0.0
18/12:30am 9.5 7.4 6.6 82 1.3 WNW 7 11 4 6 1020.9 1020.9 0.0
18/12:00am 10.5 8.0 8.4 87 1.0 W 11 13 6 7 1021.1 1021.1 0.0
 
Date/Time
CST
Temp
°C
App
Temp
°C
Dew
Point
°C
Rel
Hum
%
Delta-T
°C
Wind Press
QNH
hPa
Press
MSL
hPa
Rain since
9am
mm
Dir  Spd
km/h
Gust
km/h
Spd
kts
Gust
kts
17/11:30pm 10.5 8.0 8.4 87 1.0 W 11 15 6 8 1021.4 1021.4 0.0
17/11:00pm 10.7 8.6 8.3 85 1.2 W 9 13 5 7 1021.3 1021.3 0.0
17/10:30pm 11.1 8.3 8.5 84 1.3 W 13 17 7 9 1021.4 1021.4 0.0
17/10:00pm 11.1 8.0 8.7 85 1.2 W 15 20 8 11 1021.6 1021.6 0.0
17/09:30pm 11.5 8.8 8.9 84 1.3 W 13 17 7 9 1021.7 1021.7 0.0
17/09:00pm 11.6 8.2 9.2 85 1.2 WSW 17 24 9 13 1021.6 1021.6 0.0
17/08:30pm 11.2 7.2 9.1 87 1.0 SSW 20 30 11 16 1021.6 1021.6 0.0
17/08:00pm 12.7 9.3 9.2 79 1.8 W 17 24 9 13 1021.4 1021.4 0.0
17/07:30pm 12.6 8.1 8.7 77 1.9 W 22 32 12 17 1021.0 1021.0 0.0
17/07:00pm 13.0 7.7 8.5 74 2.2 WNW 26 35 14 19 1020.6 1020.6 0.0
17/06:30pm 12.6 8.1 8.5 76 2.0 WNW 22 32 12 17 1020.4 1020.4 0.0
17/06:00pm 12.5 7.1 8.2 75 2.1 WNW 26 35 14 19 1020.1 1020.1 0.0
17/05:30pm 12.8 7.4 8.1 73 2.3 WNW 26 41 14 22 1020.0 1020.0 0.0
17/05:00pm 12.7 7.7 8.2 74 2.2 W 24 33 13 18 1020.2 1020.2 0.0
17/04:30pm 13.2 8.6 8.3 72 2.4 W 22 30 12 16 1020.0 1020.0 0.0
17/04:00pm 12.9 8.7 8.4 74 2.2 W 20 30 11 16 1020.3 1020.3 0.0
17/03:30pm 13.4 7.6 8.0 70 2.7 W 28 44 15 24 1020.3 1020.3 0.0
17/03:00pm 14.0 8.2 8.0 67 3.0 W 28 39 15 21 1020.3 1020.3 0.0
17/02:30pm 14.2 9.2 8.2 67 3.0 W 24 39 13 21 1020.3 1020.3 0.0
17/02:20pm 14.1 8.4 8.5 69 2.8 W 28 46 15 25 1020.4 1020.4 0.0
17/02:00pm 13.7 7.8 7.7 67 3.0 WNW 28 39 15 21 1020.4 1020.4 0.0
17/01:30pm 14.0 9.1 8.6 70 2.7 W 24 35 13 19 1020.7 1020.7 0.0
17/01:00pm 13.4 8.8 8.3 71 2.5 W 22 33 12 18 1021.1 1021.1 0.0
17/12:36pm 12.5 6.3 7.8 73 2.3 W 30 48 16 26 1021.3 1021.3 0.0
17/12:30pm 12.5 5.9 7.6 72 2.4 W 32 48 17 26 1021.4 1021.4 0.0
17/12:00pm 12.5 6.4 8.2 75 2.1 WNW 30 43 16 23 1021.6 1021.6 0.0
17/11:30am 13.0 7.2 7.9 71 2.5 W 28 39 15 21 1022.3 1022.3 0.0
17/11:00am 11.9 7.9 8.9 82 1.5 W 20 30 11 16 1023.0 1023.0 0.0
17/10:30am 12.7 7.0 8.4 75 2.1 WSW 28 37 15 20 1022.9 1022.9 0.0
17/10:00am 12.3 8.2 8.6 78 1.8 W 20 32 11 17 1022.8 1022.8 0.0
17/09:30am 12.1 8.0 8.8 80 1.6 W 20 28 11 15 1022.7 1022.7 0.0
17/09:00am 11.8 7.3 8.5 80 1.6 WNW 22 37 12 20 1022.7 1022.7 0.2
17/08:30am 10.9 7.5 7.8 81 1.5 WNW 15 24 8 13 1022.5 1022.5 0.2
17/08:00am 11.1 7.6 7.0 76 2.0 WNW 15 24 8 13 1022.4 1022.4 0.2
17/07:30am 10.2 7.7 6.7 79 1.6 W 9 20 5 11 1022.2 1022.2 0.2

Latest Capital City Observations: Canberra | Sydney | Melbourne | Brisbane | Adelaide | Perth | Hobart | Darwin

Other formats

Comma delimited format used in spreadsheet applications
http://www.bom.gov.au/fwo/IDS60901/IDS60901.94814.axf

JavaScript Object Notation format (JSON) in row-major order
http://www.bom.gov.au/fwo/IDS60901/IDS60901.94814.json

Data quality

Most of these data are generated automatically and are frequently updated. Quality checks on data are not normally performed. It is possible for incorrect values to appear. Refer to information at About Latest Weather Observations and please check the disclaimer before using these data.